Time;durP1;ratioP1;P1;durP2;ratioP2;P2;SDS_P1;SDS_P2;PMS_P1;PMS_P2;Temp;Humidity;BMP_temperature;BMP_pressure;BME280_temperature;BME280_humidity;BME280_pressure;Samples;Min_cycle;Max_cycle;Signal;HPM_P1;HPM_P2
2021/03/16 00:02:27;;;;;;;9.57;3.27;;;6.70;99.90;;;;;;5072341;28;20494;-64
2021/03/16 00:04:52;;;;;;;6.57;4.00;;;6.70;99.90;;;;;;5073685;28;20401;-64
2021/03/16 00:07:20;;;;;;;6.90;3.03;;;6.80;99.90;;;;;;5073460;28;20194;-63
2021/03/16 00:09:45;;;;;;;5.13;2.80;;;6.80;99.90;;;;;;5055611;28;20182;-63
2021/03/16 00:12:11;;;;;;;4.50;3.33;;;6.80;99.90;;;;;;5072897;28;20420;-64
2021/03/16 00:14:36;;;;;;;8.03;2.70;;;6.80;99.90;;;;;;5073426;28;20601;-64
2021/03/16 00:17:03;;;;;;;3.93;2.67;;;6.80;99.90;;;;;;5072839;28;20217;-64
2021/03/16 00:19:29;;;;;;;4.60;2.80;;;6.70;99.90;;;;;;5073398;28;20199;-64
2021/03/16 00:21:54;;;;;;;4.90;2.57;;;6.80;99.90;;;;;;5073539;28;20408;-63
2021/03/16 00:24:20;;;;;;;6.20;3.07;;;6.70;99.90;;;;;;5073210;28;20404;-63
2021/03/16 00:26:46;;;;;;;4.67;2.70;;;6.70;99.90;;;;;;5073034;28;20692;-65
2021/03/16 00:29:11;;;;;;;5.50;3.40;;;6.70;99.90;;;;;;5073273;28;20641;-64
2021/03/16 00:31:37;;;;;;;7.73;2.87;;;6.80;99.90;;;;;;5073085;28;20166;-64
2021/03/16 00:34:03;;;;;;;5.93;2.70;;;7.10;99.90;;;;;;5073392;28;20627;-64
2021/03/16 00:36:28;;;;;;;7.00;2.90;;;7.10;99.90;;;;;;5073049;28;20712;-64
2021/03/16 00:38:54;;;;;;;5.17;2.73;;;6.90;99.90;;;;;;5073066;28;20197;-64
2021/03/16 00:41:19;;;;;;;3.80;2.77;;;6.80;99.90;;;;;;5073366;28;20181;-64
2021/03/16 00:43:46;;;;;;;4.10;3.27;;;6.80;99.90;;;;;;5073388;28;20197;-64
2021/03/16 00:46:12;;;;;;;4.10;2.77;;;6.80;99.90;;;;;;5082500;28;20231;-64
2021/03/16 00:48:37;;;;;;;7.00;3.37;;;6.70;99.90;;;;;;5093247;28;20494;-63
2021/03/16 00:51:04;;;;;;;9.40;3.30;;;6.60;99.90;;;;;;5093458;28;20661;-63
2021/03/16 00:53:29;;;;;;;3.80;2.90;;;6.60;99.90;;;;;;5093449;28;20208;-63
2021/03/16 00:55:55;;;;;;;6.27;4.17;;;6.80;99.90;;;;;;5093073;28;20447;-63
2021/03/16 00:58:28;;;;;;;3.90;2.60;;;6.60;99.90;;;;;;5093404;28;20169;-63
2021/03/16 01:00:54;;;;;;;11.13;3.23;;;6.60;99.90;;;;;;5092921;28;20196;-64
2021/03/16 01:03:20;;;;;;;3.23;2.20;;;6.60;99.90;;;;;;5092918;28;20403;-63
2021/03/16 01:05:47;;;;;;;7.70;2.77;;;6.60;99.90;;;;;;5075119;28;20759;-63
2021/03/16 01:08:14;;;;;;;4.10;2.87;;;6.40;99.90;;;;;;5093112;28;20649;-63
2021/03/16 01:10:40;;;;;;;4.13;2.93;;;6.50;99.90;;;;;;5093062;28;20400;-63
2021/03/16 01:13:06;;;;;;;4.27;2.50;;;6.50;99.90;;;;;;5092961;28;20407;-63
2021/03/16 01:15:31;;;;;;;6.90;2.90;;;6.50;99.90;;;;;;5079999;28;20280;-64
2021/03/16 01:17:57;;;;;;;2.90;2.33;;;6.60;99.90;;;;;;5054139;28;20180;-63
2021/03/16 01:20:24;;;;;;;5.93;2.83;;;6.50;99.90;;;;;;5072916;28;20193;-64
2021/03/16 01:22:50;;;;;;;10.03;2.77;;;6.50;99.90;;;;;;5072637;28;20178;-63
2021/03/16 01:25:15;;;;;;;6.73;2.60;;;6.30;99.90;;;;;;5072638;28;20791;-63
2021/03/16 01:27:41;;;;;;;4.60;2.93;;;6.30;99.90;;;;;;5072792;28;20189;-64
2021/03/16 01:30:08;;;;;;;5.83;3.77;;;6.50;99.90;;;;;;5072724;28;20889;-64
2021/03/16 01:32:34;;;;;;;9.10;3.10;;;6.50;99.90;;;;;;5072461;28;20253;-63
2021/03/16 01:35:01;;;;;;;4.20;2.40;;;6.40;99.90;;;;;;5054377;28;20515;-64
2021/03/16 01:37:27;;;;;;;8.13;3.00;;;6.40;99.90;;;;;;5075308;28;20422;-63
2021/03/16 01:39:52;;;;;;;3.40;2.30;;;6.30;99.90;;;;;;5076611;28;21007;-63
2021/03/16 01:42:18;;;;;;;2.87;2.23;;;6.30;99.90;;;;;;5078730;28;20197;-64
2021/03/16 01:44:47;;;;;;;8.43;3.00;;;6.40;99.90;;;;;;5076187;28;20174;-64
2021/03/16 01:47:15;;;;;;;5.33;2.73;;;6.40;99.90;;;;;;5075734;28;20197;-63
2021/03/16 01:49:42;;;;;;;5.00;2.83;;;6.50;99.90;;;;;;5076155;28;20533;-63
2021/03/16 01:52:08;;;;;;;7.90;2.83;;;6.50;99.90;;;;;;5075934;28;20423;-63
2021/03/16 01:54:34;;;;;;;3.67;2.77;;;6.40;99.90;;;;;;5076054;28;20408;-63
2021/03/16 01:57:03;;;;;;;6.03;3.07;;;6.40;99.90;;;;;;5076008;28;20441;-63
2021/03/16 01:59:28;;;;;;;8.80;3.07;;;6.40;99.90;;;;;;5075989;28;20537;-63
2021/03/16 02:01:54;;;;;;;5.70;3.87;;;6.40;99.90;;;;;;5073256;28;20462;-63
2021/03/16 02:04:20;;;;;;;4.40;3.77;;;6.30;99.90;;;;;;5074346;28;20416;-64
2021/03/16 02:06:52;;;;;;;6.67;3.70;;;6.30;99.90;;;;;;5075189;28;20439;-64
2021/03/16 02:09:43;;;;;;;7.00;3.50;;;6.30;99.90;;;;;;5082572;28;20454;-62
2021/03/16 02:12:19;;;;;;;3.83;3.40;;;6.30;99.90;;;;;;5068990;28;20447;-64
2021/03/16 02:14:50;;;;;;;5.90;3.40;;;6.10;99.90;;;;;;5074605;28;20407;-63
2021/03/16 02:17:26;;;;;;;5.53;3.30;;;6.10;99.90;;;;;;5109445;22;20903;-65
2021/03/16 02:20:13;;;;;;;7.40;3.33;;;6.20;99.90;;;;;;5088092;28;20893;-65
2021/03/16 02:22:42;;;;;;;4.20;3.27;;;6.20;99.90;;;;;;5095970;28;20391;-64
2021/03/16 02:25:33;;;;;;;5.90;3.03;;;6.20;99.90;;;;;;5095559;28;20395;-64
2021/03/16 02:28:23;;;;;;;4.43;3.03;;;6.10;99.90;;;;;;5093977;28;20434;-64
2021/03/16 02:30:50;;;;;;;8.20;3.43;;;6.10;99.90;;;;;;5091994;28;20432;-62
2021/03/16 02:33:21;;;;;;;8.80;3.70;;;6.10;99.90;;;;;;5076545;28;20427;-62
2021/03/16 02:35:48;;;;;;;3.60;2.53;;;6.20;99.90;;;;;;5078324;28;20476;-63
2021/03/16 02:38:17;;;;;;;4.03;3.07;;;6.20;99.90;;;;;;5063969;28;20990;-63
2021/03/16 02:40:47;;;;;;;3.90;3.27;;;6.10;99.90;;;;;;5076980;28;20614;-63
2021/03/16 02:43:14;;;;;;;6.33;3.70;;;6.10;99.90;;;;;;5059686;28;20931;-62
2021/03/16 02:45:39;;;;;;;6.03;3.30;;;6.20;99.90;;;;;;5076235;28;20439;-63
2021/03/16 02:48:07;;;;;;;7.03;2.97;;;6.20;99.90;;;;;;5073591;28;20448;-63
2021/03/16 02:50:33;;;;;;;5.03;3.30;;;6.10;99.90;;;;;;5075560;28;20169;-63
2021/03/16 02:52:59;;;;;;;3.77;3.43;;;6.20;99.90;;;;;;5075036;28;20920;-63
2021/03/16 02:55:27;;;;;;;7.60;3.00;;;6.30;99.90;;;;;;5074833;28;20889;-63
2021/03/16 02:57:54;;;;;;;3.93;2.77;;;6.10;99.90;;;;;;5083246;28;20436;-63
2021/03/16 03:00:22;;;;;;;5.73;3.70;;;6.20;99.90;;;;;;5095127;28;20449;-63
2021/03/16 03:02:50;;;;;;;6.43;3.53;;;6.10;99.90;;;;;;5069745;28;20412;-63
2021/03/16 03:05:17;;;;;;;5.97;3.77;;;6.10;99.90;;;;;;5074845;28;20455;-63
2021/03/16 03:07:44;;;;;;;7.63;3.67;;;6.20;99.90;;;;;;5074236;28;20454;-62
2021/03/16 03:10:11;;;;;;;9.37;4.00;;;6.10;99.90;;;;;;5074707;28;20840;-64
2021/03/16 03:12:37;;;;;;;5.33;3.83;;;6.00;99.90;;;;;;5073304;28;20412;-62
2021/03/16 03:15:08;;;;;;;10.93;4.37;;;6.00;99.90;;;;;;5075118;28;20408;-62
2021/03/16 03:17:35;;;;;;;5.93;3.77;;;6.00;99.90;;;;;;5074065;28;20448;-63
2021/03/16 03:20:03;;;;;;;8.43;3.33;;;5.90;99.90;;;;;;5075102;28;20452;-63
2021/03/16 03:22:34;;;;;;;4.50;3.43;;;5.90;99.90;;;;;;5075182;28;20775;-63
2021/03/16 03:25:10;;;;;;;7.20;4.37;;;6.10;99.90;;;;;;5074704;28;20881;-62
2021/03/16 03:27:44;;;;;;;8.13;3.40;;;6.10;99.90;;;;;;5073910;28;20436;-63
2021/03/16 03:30:11;;;;;;;5.00;3.60;;;6.00;99.90;;;;;;5074407;28;20759;-62
2021/03/16 03:32:38;;;;;;;4.63;3.13;;;6.00;99.90;;;;;;5074192;28;20475;-62
2021/03/16 03:35:06;;;;;;;6.90;3.20;;;6.00;99.90;;;;;;5074542;28;20411;-62
2021/03/16 03:37:33;;;;;;;4.90;3.10;;;5.80;99.90;;;;;;5073979;28;20512;-62
2021/03/16 03:39:59;;;;;;;6.20;3.30;;;5.80;99.90;;;;;;5074202;28;20513;-63
2021/03/16 03:42:26;;;;;;;5.13;3.47;;;5.90;99.90;;;;;;5090824;28;20404;-62
2021/03/16 03:44:53;;;;;;;5.33;3.20;;;5.90;99.90;;;;;;5094134;28;20422;-62
2021/03/16 03:47:20;;;;;;;2.93;2.50;;;5.90;99.90;;;;;;5093877;28;20837;-62
2021/03/16 03:49:48;;;;;;;6.90;2.83;;;5.90;99.90;;;;;;5074917;28;20415;-62
2021/03/16 03:52:14;;;;;;;6.40;3.13;;;5.70;99.90;;;;;;5076231;28;20443;-63
2021/03/16 03:54:44;;;;;;;5.40;2.87;;;5.80;99.90;;;;;;5094158;28;20407;-63
2021/03/16 03:57:14;;;;;;;3.80;2.97;;;5.80;99.90;;;;;;5094248;28;20426;-60
2021/03/16 03:59:43;;;;;;;6.10;2.90;;;5.90;99.90;;;;;;5094077;28;20447;-62
2021/03/16 04:02:10;;;;;;;4.07;3.00;;;5.80;99.90;;;;;;5085390;28;20740;-62
2021/03/16 04:04:38;;;;;;;5.07;2.83;;;5.80;99.90;;;;;;5074311;28;20406;-62
2021/03/16 04:07:05;;;;;;;3.50;2.60;;;5.70;99.90;;;;;;5073921;28;20458;-61
2021/03/16 04:09:31;;;;;;;4.80;2.23;;;5.70;99.90;;;;;;5073689;28;20436;-62
2021/03/16 04:11:58;;;;;;;5.10;3.30;;;5.70;99.90;;;;;;5073507;28;20408;-62
2021/03/16 04:14:25;;;;;;;3.37;3.00;;;5.70;99.90;;;;;;5073898;28;20408;-63
2021/03/16 04:16:51;;;;;;;7.20;2.97;;;5.60;99.90;;;;;;5071943;28;20456;-62
2021/03/16 04:19:17;;;;;;;5.03;2.73;;;5.70;99.90;;;;;;5073483;28;20474;-62
2021/03/16 04:21:43;;;;;;;5.27;2.90;;;5.80;99.90;;;;;;5073690;28;20396;-62
2021/03/16 04:24:10;;;;;;;5.90;2.83;;;5.80;99.90;;;;;;5073647;28;20188;-62
2021/03/16 04:26:35;;;;;;;6.20;2.93;;;5.80;99.90;;;;;;5073596;28;20477;-62
2021/03/16 04:29:01;;;;;;;3.67;2.60;;;5.80;99.90;;;;;;5087871;28;20423;-62
2021/03/16 04:31:27;;;;;;;7.70;2.80;;;5.70;99.90;;;;;;5093458;28;20169;-63
2021/03/16 04:33:52;;;;;;;11.97;2.67;;;5.60;99.90;;;;;;5093321;28;20173;-64
2021/03/16 04:36:18;;;;;;;3.77;2.23;;;5.70;99.90;;;;;;5090082;28;20210;-62
2021/03/16 04:38:43;;;;;;;6.33;2.87;;;5.80;99.90;;;;;;5073121;28;20172;-62
2021/03/16 04:41:09;;;;;;;6.93;3.00;;;5.90;99.90;;;;;;5073138;28;20216;-62
2021/03/16 04:43:35;;;;;;;8.40;2.87;;;5.80;99.90;;;;;;5073047;28;20162;-63
2021/03/16 04:46:01;;;;;;;8.43;2.73;;;5.70;99.90;;;;;;5073261;28;20174;-61
2021/03/16 04:48:26;;;;;;;7.63;2.77;;;5.60;99.90;;;;;;5072543;28;20211;-62
2021/03/16 04:50:52;;;;;;;5.37;2.50;;;5.50;99.90;;;;;;5073075;28;20165;-62
2021/03/16 04:53:17;;;;;;;6.83;2.77;;;5.50;99.90;;;;;;5073114;28;20174;-62
2021/03/16 04:55:43;;;;;;;5.60;2.30;;;5.40;99.90;;;;;;5073082;28;20166;-62
2021/03/16 04:58:08;;;;;;;3.87;2.33;;;5.40;99.90;;;;;;5066512;28;20221;-62
2021/03/16 05:00:34;;;;;;;7.43;2.83;;;5.40;99.90;;;;;;5072974;28;20272;-62
2021/03/16 05:03:00;;;;;;;8.07;3.17;;;5.50;99.90;;;;;;5072527;28;20259;-62
2021/03/16 05:05:25;;;;;;;4.40;2.30;;;5.50;99.90;;;;;;5072664;28;20174;-62
2021/03/16 05:07:51;;;;;;;6.87;2.83;;;5.60;99.90;;;;;;5072869;28;20197;-62
2021/03/16 05:10:16;;;;;;;3.90;2.20;;;5.50;99.90;;;;;;5072964;28;20231;-62
2021/03/16 05:12:42;;;;;;;4.73;2.40;;;5.60;99.90;;;;;;5076264;28;20184;-61
2021/03/16 05:15:08;;;;;;;7.10;2.33;;;5.60;99.90;;;;;;5077082;28;20582;-61
2021/03/16 05:17:34;;;;;;;8.80;3.30;;;5.60;99.90;;;;;;5076584;28;20666;-61
2021/03/16 05:19:59;;;;;;;6.20;2.90;;;5.60;99.90;;;;;;5077080;28;20450;-62
2021/03/16 05:22:25;;;;;;;4.87;2.13;;;5.50;99.90;;;;;;5077301;28;20162;-62
2021/03/16 05:24:51;;;;;;;6.63;2.97;;;5.60;99.90;;;;;;5076893;28;20162;-62
2021/03/16 05:27:16;;;;;;;4.13;2.73;;;5.60;99.90;;;;;;5076480;28;20222;-62
2021/03/16 05:29:42;;;;;;;10.77;2.70;;;5.70;99.90;;;;;;5072288;28;20175;-62
2021/03/16 05:32:07;;;;;;;6.00;2.80;;;5.80;99.90;;;;;;5085186;28;20174;-61
2021/03/16 05:34:33;;;;;;;5.17;2.80;;;5.80;99.90;;;;;;5076227;28;20166;-59
2021/03/16 05:36:59;;;;;;;3.97;2.60;;;5.70;99.90;;;;;;5076227;28;20198;-61
2021/03/16 05:39:24;;;;;;;7.23;2.77;;;5.60;99.90;;;;;;5076393;28;20185;-61
2021/03/16 05:41:51;;;;;;;5.67;2.63;;;5.70;99.90;;;;;;5079224;28;20173;-61
2021/03/16 05:44:18;;;;;;;8.83;2.43;;;5.70;99.90;;;;;;5076792;28;20162;-61
2021/03/16 05:46:44;;;;;;;4.27;2.13;;;5.60;99.90;;;;;;5075959;28;20431;-61
2021/03/16 05:49:10;;;;;;;5.27;2.10;;;5.60;99.90;;;;;;5076168;28;20946;-62
2021/03/16 05:51:37;;;;;;;5.10;2.50;;;5.70;99.90;;;;;;5076230;28;20905;-62
2021/03/16 05:54:04;;;;;;;6.53;3.00;;;5.80;99.90;;;;;;5076212;28;20405;-61
2021/03/16 05:56:32;;;;;;;5.90;2.47;;;5.60;99.90;;;;;;5077461;28;20423;-62
2021/03/16 05:58:59;;;;;;;5.73;2.63;;;5.70;99.90;;;;;;5079296;28;20447;-61
2021/03/16 06:01:24;;;;;;;7.60;2.80;;;5.70;99.90;;;;;;5076291;28;20450;-61
2021/03/16 06:03:50;;;;;;;5.13;2.87;;;5.80;99.90;;;;;;5077019;28;21266;-63
2021/03/16 06:06:16;;;;;;;5.43;3.00;;;5.70;99.90;;;;;;5076782;28;20231;-62
2021/03/16 06:08:42;;;;;;;6.70;2.47;;;5.70;99.90;;;;;;5076723;28;20635;-61
2021/03/16 06:11:08;;;;;;;6.70;2.50;;;5.60;99.90;;;;;;5075421;28;20413;-62
2021/03/16 06:13:40;;;;;;;6.10;2.90;;;5.60;99.90;;;;;;5075800;28;20162;-64
2021/03/16 06:16:13;;;;;;;5.77;2.70;;;5.60;99.90;;;;;;5075697;28;20380;-61
2021/03/16 06:18:42;;;;;;;8.67;3.10;;;5.80;99.90;;;;;;5075626;28;20420;-60
2021/03/16 06:21:09;;;;;;;6.93;2.80;;;5.80;99.90;;;;;;5075831;28;20393;-61
2021/03/16 06:23:36;;;;;;;4.93;2.90;;;5.80;99.90;;;;;;5075232;28;20440;-62
2021/03/16 06:26:08;;;;;;;9.87;3.00;;;5.70;99.90;;;;;;5075648;28;20436;-62
2021/03/16 06:28:35;;;;;;;5.67;3.10;;;5.70;99.90;;;;;;5086972;28;20494;-61
2021/03/16 06:31:00;;;;;;;3.83;2.60;;;5.70;99.90;;;;;;5095830;28;20498;-62
2021/03/16 06:33:28;;;;;;;11.90;3.57;;;5.80;99.90;;;;;;5095731;28;20438;-62
2021/03/16 06:36:03;;;;;;;5.97;2.77;;;5.80;99.90;;;;;;5095674;28;20184;-62
2021/03/16 06:38:30;;;;;;;7.83;2.80;;;5.60;99.90;;;;;;5055524;28;20992;-62
2021/03/16 06:41:07;;;;;;;9.67;3.40;;;5.70;99.90;;;;;;5055979;28;20457;-62
2021/03/16 06:43:32;;;;;;;4.50;3.40;;;5.70;99.90;;;;;;5055172;28;20429;-63
2021/03/16 06:45:58;;;;;;;6.53;3.13;;;5.70;99.90;;;;;;5054295;28;20444;-63
2021/03/16 06:48:24;;;;;;;8.73;4.27;;;5.90;99.90;;;;;;5055039;28;20178;-63
2021/03/16 06:50:52;;;;;;;9.83;3.33;;;6.10;99.90;;;;;;5055271;28;20182;-60
2021/03/16 06:53:20;;;;;;;4.07;3.40;;;6.10;99.90;;;;;;5055005;28;20769;-61
2021/03/16 06:55:57;;;;;;;7.03;3.30;;;5.90;99.90;;;;;;5054877;28;20428;-60
2021/03/16 06:58:27;;;;;;;7.73;3.20;;;5.90;99.90;;;;;;5065239;28;20872;-61
2021/03/16 07:01:13;;;;;;;5.87;2.67;;;5.90;99.90;;;;;;5074729;28;20947;-62
2021/03/16 07:03:40;;;;;;;4.53;2.90;;;5.80;99.90;;;;;;5074795;28;20450;-62
2021/03/16 07:06:14;;;;;;;9.13;3.17;;;5.80;99.90;;;;;;5093427;28;20395;-62
2021/03/16 07:08:41;;;;;;;14.80;3.83;;;5.80;99.90;;;;;;5074679;28;20412;-62
2021/03/16 07:11:13;;;;;;;7.03;2.60;;;5.90;99.90;;;;;;5074286;28;20434;-62
2021/03/16 07:13:40;;;;;;;6.93;3.37;;;5.70;99.90;;;;;;5074695;28;20442;-60
2021/03/16 07:16:07;;;;;;;7.67;3.80;;;5.60;99.90;;;;;;5074165;28;20415;-62
2021/03/16 07:18:44;;;;;;;5.47;3.17;;;5.80;99.90;;;;;;5074189;28;20530;-63
2021/03/16 07:21:11;;;;;;;7.03;3.80;;;5.70;99.90;;;;;;5074335;28;20543;-63
2021/03/16 07:23:49;;;;;;;4.77;3.50;;;5.70;99.90;;;;;;5074859;28;20405;-62
2021/03/16 07:26:15;;;;;;;8.63;3.70;;;5.70;99.90;;;;;;5074428;28;20435;-63
2021/03/16 07:28:44;;;;;;;9.50;3.43;;;5.70;99.90;;;;;;5073915;28;20753;-61
2021/03/16 07:31:10;;;;;;;8.13;3.50;;;5.70;99.90;;;;;;5074279;28;20523;-63
2021/03/16 07:33:37;;;;;;;7.00;3.07;;;5.70;99.90;;;;;;5072982;28;20404;-62
2021/03/16 07:36:03;;;;;;;8.50;3.23;;;5.60;99.90;;;;;;5073601;28;20818;-61
2021/03/16 07:38:29;;;;;;;7.30;3.50;;;5.60;99.90;;;;;;5076399;28;20407;-64
2021/03/16 07:40:55;;;;;;;4.87;2.70;;;5.60;99.90;;;;;;5073847;28;20501;-63
2021/03/16 07:43:31;;;;;;;9.43;3.70;;;5.40;99.90;;;;;;5073952;28;20170;-63
2021/03/16 07:46:16;;;;;;;6.87;4.17;;;5.50;99.90;;;;;;5072948;28;20388;-65
2021/03/16 07:48:52;;;;;;;4.17;3.50;;;5.60;99.90;;;;;;5073121;28;20749;-63
2021/03/16 07:51:23;;;;;;;6.03;3.10;;;5.80;99.90;;;;;;5055524;28;20459;-63
2021/03/16 07:53:57;;;;;;;7.60;3.90;;;6.10;99.90;;;;;;5073798;28;20409;-62
2021/03/16 07:56:27;;;;;;;7.83;3.80;;;6.40;99.90;;;;;;5073796;28;20942;-62
2021/03/16 07:58:54;;;;;;;4.93;2.63;;;6.50;99.90;;;;;;5073559;28;20401;-62
2021/03/16 08:01:21;;;;;;;7.17;3.40;;;6.30;99.90;;;;;;5073198;28;20417;-63
2021/03/16 08:03:47;;;;;;;5.90;3.33;;;6.30;99.90;;;;;;5073608;28;20909;-64
2021/03/16 08:06:26;;;;;;;6.40;3.30;;;6.50;99.90;;;;;;5073247;28;20450;-63
2021/03/16 08:08:53;;;;;;;7.47;3.17;;;6.70;99.90;;;;;;5073665;28;20396;-62
2021/03/16 08:11:19;;;;;;;5.90;3.10;;;6.80;99.90;;;;;;5073329;28;20927;-63
2021/03/16 08:13:56;;;;;;;12.37;4.03;;;6.90;99.90;;;;;;5073724;28;20397;-63
2021/03/16 08:16:42;;;;;;;6.10;3.30;;;6.80;99.90;;;;;;5073302;28;20517;-63
2021/03/16 08:19:14;;;;;;;11.33;3.70;;;6.90;99.90;;;;;;5090956;22;20492;-62
2021/03/16 08:21:44;;;;;;;7.20;3.70;;;6.90;99.90;;;;;;5072736;28;20384;-65
2021/03/16 08:24:14;;;;;;;8.70;2.97;;;6.70;99.90;;;;;;5072994;28;20405;-63
2021/03/16 08:26:54;;;;;;;8.83;4.00;;;6.90;99.90;;;;;;5072321;28;20452;-63
2021/03/16 08:29:30;;;;;;;7.20;3.40;;;6.90;99.90;;;;;;5035696;28;20444;-64
2021/03/16 08:31:57;;;;;;;9.40;2.90;;;6.90;99.90;;;;;;5034165;28;20508;-62
2021/03/16 08:34:24;;;;;;;8.73;3.40;;;6.80;99.90;;;;;;5052899;28;20959;-63
2021/03/16 08:36:50;;;;;;;6.67;2.93;;;6.90;99.90;;;;;;5053222;28;20764;-63
2021/03/16 08:39:25;;;;;;;6.60;3.67;;;7.00;99.90;;;;;;5052224;28;20514;-63
2021/03/16 08:41:59;;;;;;;11.63;4.20;;;6.90;99.90;;;;;;5053027;28;20193;-63
2021/03/16 08:44:27;;;;;;;6.97;3.17;;;6.90;99.90;;;;;;5052843;28;20931;-62
2021/03/16 08:46:53;;;;;;;5.83;3.30;;;6.80;99.90;;;;;;5053334;28;20917;-63
2021/03/16 08:49:20;;;;;;;10.20;3.27;;;7.00;99.90;;;;;;5052457;28;20448;-63
2021/03/16 08:51:46;;;;;;;7.77;3.83;;;7.20;99.90;;;;;;5052693;28;20421;-63
2021/03/16 08:54:21;;;;;;;6.97;3.80;;;7.30;99.90;;;;;;5052502;28;20416;-65
2021/03/16 08:56:48;;;;;;;3.67;3.10;;;7.30;99.90;;;;;;5053067;28;20163;-63
2021/03/16 08:59:14;;;;;;;8.60;3.53;;;7.30;99.90;;;;;;5053221;28;20540;-63
2021/03/16 09:01:46;;;;;;;8.50;4.07;;;7.30;99.90;;;;;;5052775;28;20529;-63
2021/03/16 09:04:12;;;;;;;4.67;3.40;;;7.50;99.90;;;;;;5036148;28;20172;-63
2021/03/16 09:06:39;;;;;;;4.70;3.30;;;7.60;99.90;;;;;;5032929;28;20404;-63
2021/03/16 09:09:06;;;;;;;7.30;3.80;;;7.40;99.90;;;;;;5032903;28;20462;-63
2021/03/16 09:11:34;;;;;;;4.17;3.57;;;7.30;99.90;;;;;;5033583;28;20417;-63
2021/03/16 09:14:26;;;;;;;6.07;3.40;;;7.10;99.90;;;;;;5032808;28;20415;-64
2021/03/16 09:16:54;;;;;;;8.30;3.90;;;7.10;99.90;;;;;;5029772;28;20931;-63
2021/03/16 09:19:22;;;;;;;9.57;5.17;;;6.90;99.90;;;;;;5032000;28;20981;-63
2021/03/16 09:21:57;;;;;;;7.07;4.50;;;6.90;99.90;;;;;;5032657;28;20510;-63
2021/03/16 09:24:24;;;;;;;6.17;3.67;;;6.80;99.90;;;;;;5032324;28;20394;-63
2021/03/16 09:27:05;;;;;;;9.23;4.10;;;6.90;99.90;;;;;;5032527;28;20403;-63
2021/03/16 09:29:34;;;;;;;7.80;4.20;;;6.80;99.90;;;;;;5032603;28;20771;-64
2021/03/16 09:32:02;;;;;;;8.00;3.90;;;6.60;99.90;;;;;;5032616;28;20402;-65
2021/03/16 09:34:28;;;;;;;6.30;4.20;;;6.30;99.90;;;;;;5032055;28;20500;-65
2021/03/16 09:36:58;;;;;;;6.53;4.20;;;6.50;99.90;;;;;;5032573;28;20793;-64
2021/03/16 09:39:25;;;;;;;6.03;4.03;;;6.70;99.90;;;;;;5014582;28;20458;-64
2021/03/16 09:41:55;;;;;;;5.53;4.30;;;7.00;99.90;;;;;;5032729;28;20390;-65
2021/03/16 09:44:35;;;;;;;4.97;3.80;;;7.00;99.90;;;;;;5041397;28;20905;-64
2021/03/16 09:47:02;;;;;;;5.97;3.90;;;6.80;99.90;;;;;;5051657;28;20401;-64
2021/03/16 09:49:32;;;;;;;7.60;4.30;;;6.70;99.90;;;;;;5051535;28;20520;-65
2021/03/16 09:52:06;;;;;;;5.27;3.50;;;6.70;99.90;;;;;;5052873;28;20447;-64
2021/03/16 09:54:52;;;;;;;5.13;3.70;;;6.60;99.90;;;;;;5052692;28;20739;-64
2021/03/16 09:57:17;;;;;;;7.60;4.10;;;6.70;99.90;;;;;;5053641;28;20438;-65
2021/03/16 09:59:45;;;;;;;7.30;4.57;;;6.70;99.90;;;;;;5056089;28;20449;-64
2021/03/16 10:02:12;;;;;;;5.57;3.90;;;6.90;99.90;;;;;;5056211;28;20175;-64
2021/03/16 10:04:49;;;;;;;11.10;4.50;;;7.10;99.90;;;;;;5038702;28;20469;-64
2021/03/16 10:07:28;;;;;;;7.57;3.90;;;7.10;99.90;;;;;;5035745;28;20488;-64
2021/03/16 10:10:04;;;;;;;5.60;4.67;;;7.30;99.90;;;;;;5036321;28;20745;-64
2021/03/16 10:12:30;;;;;;;9.30;4.70;;;7.30;99.90;;;;;;5035989;28;20750;-65
2021/03/16 10:14:55;;;;;;;9.50;4.67;;;7.00;99.90;;;;;;5035714;28;20504;-64
2021/03/16 10:17:29;;;;;;;7.00;4.73;;;6.80;99.90;;;;;;5035023;28;20179;-65
2021/03/16 10:20:06;;;;;;;5.40;4.33;;;7.00;99.90;;;;;;5035291;28;20187;-64
2021/03/16 10:22:36;;;;;;;6.53;4.43;;;7.20;99.90;;;;;;5035753;28;20440;-64
2021/03/16 10:25:09;;;;;;;14.87;7.70;;;7.10;99.90;;;;;;5035754;28;20414;-64
2021/03/16 10:27:35;;;;;;;16.30;8.87;;;7.30;99.90;;;;;;5038019;28;20964;-64
2021/03/16 10:30:05;;;;;;;10.30;5.30;;;7.60;99.90;;;;;;5054941;28;20417;-64
2021/03/16 10:32:30;;;;;;;15.90;5.20;;;7.70;99.90;;;;;;5055535;28;20415;-65
2021/03/16 10:34:56;;;;;;;11.70;6.53;;;8.00;99.90;;;;;;5054853;28;20467;-64
2021/03/16 10:37:24;;;;;;;6.37;4.10;;;8.00;99.90;;;;;;5054706;28;20179;-65
2021/03/16 10:39:51;;;;;;;7.90;4.60;;;8.30;99.90;;;;;;5055120;28;20542;-64
2021/03/16 10:42:17;;;;;;;5.23;3.93;;;8.20;99.90;;;;;;5054783;28;20403;-65
2021/03/16 10:44:43;;;;;;;7.23;4.90;;;8.30;99.90;;;;;;5054570;28;20766;-65
2021/03/16 10:47:10;;;;;;;7.30;4.30;;;8.10;99.90;;;;;;5055135;28;20878;-65
2021/03/16 10:49:37;;;;;;;6.80;4.80;;;7.90;99.90;;;;;;5054836;28;20409;-65
2021/03/16 10:52:04;;;;;;;10.87;5.03;;;8.10;99.90;;;;;;5054960;28;20497;-65
2021/03/16 10:54:30;;;;;;;7.97;4.80;;;8.10;99.90;;;;;;5054724;28;20425;-64
2021/03/16 10:56:56;;;;;;;9.67;5.27;;;8.00;99.90;;;;;;5054500;28;20416;-64
2021/03/16 10:59:23;;;;;;;10.50;5.07;;;8.20;99.90;;;;;;5053870;28;20457;-65
2021/03/16 11:01:49;;;;;;;8.03;5.70;;;8.30;99.90;;;;;;5054583;28;20890;-65
2021/03/16 11:04:17;;;;;;;8.40;4.30;;;8.20;99.90;;;;;;5054803;28;20417;-64
2021/03/16 11:06:44;;;;;;;6.57;4.40;;;8.00;99.90;;;;;;5054414;28;20404;-64
2021/03/16 11:09:09;;;;;;;13.03;4.30;;;8.00;99.90;;;;;;5053381;28;20428;-65
2021/03/16 11:11:35;;;;;;;5.13;4.07;;;8.10;99.90;;;;;;5054502;28;20496;-65
2021/03/16 11:14:00;;;;;;;8.47;4.43;;;7.90;99.90;;;;;;5054052;28;20175;-64
2021/03/16 11:16:26;;;;;;;5.03;3.97;;;7.90;99.90;;;;;;5053143;28;20222;-65
2021/03/16 11:18:51;;;;;;;9.30;4.20;;;8.00;99.90;;;;;;5054066;28;20231;-64
2021/03/16 11:21:17;;;;;;;6.40;4.60;;;8.20;99.90;;;;;;5054342;28;20257;-64
2021/03/16 11:23:43;;;;;;;7.67;4.83;;;8.40;99.90;;;;;;5053087;28;20170;-65
2021/03/16 11:26:08;;;;;;;7.80;4.23;;;8.40;99.90;;;;;;5053747;28;20253;-64
2021/03/16 11:28:34;;;;;;;9.33;4.50;;;8.40;99.90;;;;;;5054304;28;20189;-64
2021/03/16 11:30:59;;;;;;;8.00;3.67;;;8.40;99.90;;;;;;5054513;28;20163;-65
2021/03/16 11:33:25;;;;;;;10.10;4.43;;;8.40;99.90;;;;;;5054361;28;20175;-65
2021/03/16 11:35:51;;;;;;;6.73;4.37;;;8.40;99.90;;;;;;5054528;28;20179;-65
2021/03/16 11:38:16;;;;;;;8.63;3.80;;;8.40;99.90;;;;;;5048419;28;20200;-65
2021/03/16 11:40:42;;;;;;;7.60;4.93;;;8.20;99.90;;;;;;5033979;28;20200;-65
2021/03/16 11:43:08;;;;;;;6.83;3.50;;;8.10;99.90;;;;;;5034141;28;20700;-64
2021/03/16 11:45:34;;;;;;;6.90;3.97;;;8.10;99.90;;;;;;5033248;28;20450;-65
2021/03/16 11:47:59;;;;;;;11.57;4.03;;;8.00;99.90;;;;;;5034164;28;20564;-65
2021/03/16 11:50:25;;;;;;;4.97;3.23;;;7.80;99.90;;;;;;5034334;28;20172;-64
2021/03/16 11:52:51;;;;;;;6.20;3.40;;;7.40;99.90;;;;;;5034041;28;20668;-64
2021/03/16 11:55:17;;;;;;;6.50;4.00;;;7.20;99.90;;;;;;5033755;28;20172;-64
2021/03/16 11:57:42;;;;;;;7.57;4.10;;;7.00;99.90;;;;;;5033802;28;20431;-64
2021/03/16 12:00:09;;;;;;;6.87;3.70;;;7.00;99.90;;;;;;5033117;28;20290;-64
2021/03/16 12:02:35;;;;;;;7.50;3.47;;;7.20;99.90;;;;;;5033263;28;20542;-63
2021/03/16 12:05:02;;;;;;;9.87;3.83;;;7.20;99.90;;;;;;5035057;28;20474;-65
2021/03/16 12:07:27;;;;;;;6.53;3.63;;;7.50;99.90;;;;;;5053150;28;20449;-64
2021/03/16 12:09:53;;;;;;;5.80;3.07;;;7.70;99.90;;;;;;5053499;28;20438;-64
2021/03/16 12:12:19;;;;;;;7.57;3.57;;;7.80;99.90;;;;;;5053229;28;20182;-65
2021/03/16 12:14:45;;;;;;;12.20;4.10;;;7.90;99.90;;;;;;5052985;28;20180;-64
2021/03/16 12:17:12;;;;;;;6.20;3.50;;;7.80;99.90;;;;;;5053121;28;20271;-65
2021/03/16 12:19:38;;;;;;;4.50;3.70;;;8.10;99.90;;;;;;5053064;28;20604;-65
2021/03/16 12:22:04;;;;;;;6.47;3.73;;;8.40;99.90;;;;;;5052962;28;20404;-65
2021/03/16 12:24:30;;;;;;;6.60;4.00;;;8.60;99.90;;;;;;5053305;28;20412;-64
2021/03/16 12:26:56;;;;;;;4.63;3.70;;;9.10;99.90;;;;;;5053189;28;20407;-65
2021/03/16 12:29:21;;;;;;;7.27;3.50;;;9.50;99.90;;;;;;5053265;28;20471;-65
2021/03/16 12:31:47;;;;;;;11.00;3.63;;;9.90;99.90;;;;;;5053260;28;20542;-64
2021/03/16 12:34:13;;;;;;;9.43;4.00;;;10.30;99.90;;;;;;5053617;28;20185;-64
2021/03/16 12:36:38;;;;;;;9.03;3.30;;;11.40;99.40;;;;;;5052664;28;20186;-65
2021/03/16 12:39:04;;;;;;;3.73;2.70;;;12.20;97.80;;;;;;5053223;28;20191;-64
2021/03/16 12:41:30;;;;;;;4.93;2.97;;;11.60;96.30;;;;;;5052919;28;20654;-65
2021/03/16 12:43:56;;;;;;;7.50;3.47;;;10.70;98.10;;;;;;5052947;28;20410;-65
2021/03/16 12:46:22;;;;;;;4.77;2.70;;;10.00;98.70;;;;;;5053257;28;20165;-65
2021/03/16 12:48:47;;;;;;;4.73;3.00;;;9.60;99.60;;;;;;5052856;28;20442;-66
2021/03/16 12:51:13;;;;;;;8.63;3.80;;;9.20;99.10;;;;;;5052150;28;20632;-65
2021/03/16 12:53:39;;;;;;;5.00;3.40;;;8.90;99.00;;;;;;5052625;28;20307;-65
2021/03/16 12:56:05;;;;;;;5.13;3.10;;;8.70;99.40;;;;;;5052604;28;20178;-65
2021/03/16 12:58:30;;;;;;;7.57;3.40;;;8.70;99.90;;;;;;5052718;28;20212;-65
2021/03/16 13:00:56;;;;;;;4.40;2.83;;;8.90;99.90;;;;;;5052668;28;20199;-64